Time;durP1;ratioP1;P1;durP2;ratioP2;P2;SDS_P1;SDS_P2;PMS_P1;PMS_P2;Temp;Humidity;BMP_temperature;BMP_pressure;BME280_temperature;BME280_humidity;BME280_pressure;Samples;Min_cycle;Max_cycle;Signal;HPM_P1;HPM_P2
2021/08/21 00:02:25;;;;;;;1.95;1.65;;;17.70;99.90;;;;;;6241532;22;20027;-82
2021/08/21 00:04:52;;;;;;;2.28;1.50;;;17.60;99.90;;;;;;6243467;22;20038;-82
2021/08/21 00:07:19;;;;;;;4.43;2.10;;;17.60;99.90;;;;;;6242431;22;20016;-82
2021/08/21 00:09:46;;;;;;;3.85;1.88;;;17.60;99.90;;;;;;6243427;22;20026;-82
2021/08/21 00:12:15;;;;;;;2.65;1.65;;;17.60;99.90;;;;;;6241987;22;20020;-82
2021/08/21 00:14:43;;;;;;;;;;;17.50;99.90;;;;;;6243526;22;20088;-82
2021/08/21 00:17:10;;;;;;;3.65;2.45;;;17.40;99.90;;;;;;6242070;22;19916;-82
2021/08/21 00:19:40;;;;;;;3.08;2.42;;;17.40;99.90;;;;;;6242895;22;20420;-80
2021/08/21 00:22:09;;;;;;;2.67;2.45;;;17.30;99.90;;;;;;6241830;22;20020;-82
2021/08/21 00:24:36;;;;;;;3.90;2.70;;;17.30;99.90;;;;;;6243172;22;20103;-80
2021/08/21 00:27:03;;;;;;;2.58;2.13;;;17.20;99.90;;;;;;6242934;22;20020;-81
2021/08/21 00:29:34;;;;;;;4.10;2.67;;;17.20;99.90;;;;;;6242695;22;20473;-82
2021/08/21 00:32:01;;;;;;;3.45;2.30;;;17.10;99.90;;;;;;6243204;22;20028;-82
2021/08/21 00:34:28;;;;;;;3.47;2.85;;;17.10;99.90;;;;;;6242017;22;20047;-82
2021/08/21 00:36:55;;;;;;;5.10;3.30;;;17.00;99.90;;;;;;6242696;22;20429;-82
2021/08/21 00:39:22;;;;;;;4.63;3.50;;;17.00;99.90;;;;;;6242308;22;20016;-82
2021/08/21 00:41:49;;;;;;;4.88;3.38;;;16.90;99.90;;;;;;6243143;22;20016;-80
2021/08/21 00:44:17;;;;;;;3.53;3.22;;;16.90;99.90;;;;;;6241735;22;20020;-82
2021/08/21 00:46:54;;;;;;;3.10;2.80;;;16.90;99.90;;;;;;6242489;22;20052;-82
2021/08/21 00:49:23;;;;;;;3.20;2.90;;;16.90;99.90;;;;;;6242123;22;20027;-82
2021/08/21 00:51:51;;;;;;;4.68;3.55;;;16.80;99.90;;;;;;6242833;22;20023;-82
2021/08/21 00:54:18;;;;;;;3.95;3.50;;;16.80;99.90;;;;;;6241907;22;20074;-82
2021/08/21 00:56:45;;;;;;;4.15;3.70;;;16.80;99.90;;;;;;6243008;22;20020;-82
2021/08/21 00:59:12;;;;;;;4.40;4.00;;;16.70;99.90;;;;;;6241912;22;20036;-82
2021/08/21 01:01:41;;;;;;;3.70;3.35;;;16.70;99.90;;;;;;6242711;22;20024;-81
2021/08/21 01:04:08;;;;;;;5.95;3.72;;;16.70;99.90;;;;;;6242281;22;20090;-82
2021/08/21 01:06:35;;;;;;;4.47;3.90;;;16.80;99.90;;;;;;6242734;22;20016;-80
2021/08/21 01:09:03;;;;;;;4.75;4.00;;;16.70;99.90;;;;;;6243094;22;20023;-82
2021/08/21 01:11:31;;;;;;;3.90;3.55;;;16.70;99.90;;;;;;6241764;22;20091;-80
2021/08/21 01:13:59;;;;;;;4.90;4.40;;;16.80;99.90;;;;;;6242562;22;20017;-83
2021/08/21 01:16:27;;;;;;;5.10;4.60;;;16.80;99.90;;;;;;6241486;22;20068;-83
2021/08/21 01:18:59;;;;;;;4.40;3.95;;;16.70;99.90;;;;;;6243080;22;20020;-82
2021/08/21 01:21:26;;;;;;;5.13;4.30;;;16.70;99.90;;;;;;6241671;22;20043;-84
2021/08/21 01:23:54;;;;;;;4.57;3.97;;;16.70;99.90;;;;;;6228606;22;20013;-82
2021/08/21 01:26:21;;;;;;;4.90;3.88;;;16.80;99.90;;;;;;6241722;22;20039;-82
2021/08/21 01:28:48;;;;;;;6.13;3.38;;;16.70;99.90;;;;;;6243225;22;20016;-82
2021/08/21 01:31:16;;;;;;;4.22;3.65;;;16.70;99.90;;;;;;6241904;22;20016;-82
2021/08/21 01:33:43;;;;;;;6.25;4.15;;;16.70;99.90;;;;;;6242385;22;20039;-83
2021/08/21 01:36:11;;;;;;;3.95;3.50;;;16.70;99.90;;;;;;6230751;22;20012;-82
2021/08/21 01:38:55;;;;;;;4.63;3.70;;;16.70;99.90;;;;;;6242706;22;20020;-82
2021/08/21 01:41:23;;;;;;;4.45;4.00;;;16.70;99.90;;;;;;6243315;22;20020;-82
2021/08/21 01:43:50;;;;;;;5.22;3.85;;;16.60;99.90;;;;;;6233472;22;20031;-81
2021/08/21 01:46:18;;;;;;;4.82;4.00;;;16.60;99.90;;;;;;6232669;22;20028;-82
2021/08/21 01:48:45;;;;;;;4.45;3.92;;;16.60;99.90;;;;;;6244618;22;20024;-80
2021/08/21 01:51:15;;;;;;;4.43;4.00;;;16.50;99.90;;;;;;6243854;22;20329;-82
2021/08/21 01:53:42;;;;;;;4.68;3.97;;;16.60;99.90;;;;;;6244453;22;20090;-83
2021/08/21 01:56:10;;;;;;;5.57;3.85;;;16.60;99.90;;;;;;6243526;22;20031;-82
2021/08/21 01:58:39;;;;;;;7.25;4.63;;;16.60;99.90;;;;;;6244385;22;20340;-83
2021/08/21 02:01:06;;;;;;;5.47;4.30;;;16.60;99.90;;;;;;6243604;22;20024;-82
2021/08/21 02:03:33;;;;;;;6.50;5.03;;;16.60;99.90;;;;;;6244295;22;20027;-82
2021/08/21 02:06:02;;;;;;;5.10;4.60;;;16.60;99.90;;;;;;6244378;22;20016;-83
2021/08/21 02:08:29;;;;;;;6.72;4.80;;;16.60;99.90;;;;;;6239361;22;20313;-82
2021/08/21 02:10:56;;;;;;;8.30;5.10;;;16.60;99.90;;;;;;6244115;22;20079;-82
2021/08/21 02:13:23;;;;;;;6.13;4.60;;;16.60;99.90;;;;;;6243274;22;20320;-82
2021/08/21 02:15:50;;;;;;;5.30;4.80;;;16.70;99.90;;;;;;6244303;22;20024;-81
2021/08/21 02:18:17;;;;;;;8.25;5.35;;;16.70;99.90;;;;;;6242863;22;20020;-81
2021/08/21 02:20:46;;;;;;;6.88;5.30;;;16.70;99.90;;;;;;6243995;22;20436;-82
2021/08/21 02:23:13;;;;;;;9.07;5.50;;;16.70;99.90;;;;;;6242847;22;20302;-81
2021/08/21 02:25:40;;;;;;;6.50;5.20;;;16.70;99.90;;;;;;6244467;22;20016;-83
2021/08/21 02:28:09;;;;;;;7.05;5.88;;;16.70;99.90;;;;;;6243538;22;20020;-81
2021/08/21 02:30:39;;;;;;;7.28;5.65;;;16.70;99.90;;;;;;6243629;22;20028;-82
2021/08/21 02:33:18;;;;;;;8.15;6.68;;;16.80;99.90;;;;;;6243594;22;20048;-81
2021/08/21 02:35:51;;;;;;;7.93;6.47;;;16.80;99.90;;;;;;6243240;22;20087;-82
2021/08/21 02:38:18;;;;;;;10.27;7.32;;;16.80;99.90;;;;;;6219191;22;20019;-80
2021/08/21 02:40:48;;;;;;;9.57;7.30;;;16.80;99.90;;;;;;6243904;22;20016;-82
2021/08/21 02:43:16;;;;;;;8.77;7.60;;;16.80;99.90;;;;;;6242987;22;20453;-83
2021/08/21 02:45:46;;;;;;;9.57;7.93;;;16.90;99.90;;;;;;6229903;22;20024;-80
2021/08/21 02:48:13;;;;;;;10.93;8.40;;;16.90;99.90;;;;;;6242730;22;20092;-83
2021/08/21 02:50:41;;;;;;;11.75;8.18;;;16.90;99.90;;;;;;6243915;22;20465;-79
2021/08/21 02:53:11;;;;;;;13.70;8.53;;;16.90;99.90;;;;;;6243212;22;20078;-82
2021/08/21 02:55:38;;;;;;;9.43;8.13;;;16.90;99.90;;;;;;6243780;22;20325;-83
2021/08/21 02:58:05;;;;;;;10.05;8.98;;;16.90;99.90;;;;;;6242989;22;20024;-82
2021/08/21 03:00:32;;;;;;;10.75;8.65;;;16.90;99.90;;;;;;6243672;22;20016;-81
2021/08/21 03:03:00;;;;;;;10.50;8.95;;;16.90;99.90;;;;;;6243760;22;20026;-82
2021/08/21 03:05:29;;;;;;;15.18;9.05;;;16.90;99.90;;;;;;6242988;22;20103;-82
2021/08/21 03:07:56;;;;;;;12.60;9.63;;;16.90;99.90;;;;;;6243500;22;20020;-82
2021/08/21 03:10:23;;;;;;;9.60;8.63;;;16.90;99.90;;;;;;6242922;22;20291;-82
2021/08/21 03:12:50;;;;;;;10.32;9.00;;;16.90;99.90;;;;;;6243402;22;20023;-82
2021/08/21 03:15:18;;;;;;;13.40;8.98;;;16.90;99.90;;;;;;6242668;22;20294;-82
2021/08/21 03:17:45;;;;;;;12.68;9.52;;;16.90;99.90;;;;;;6243917;22;20444;-83
2021/08/21 03:20:13;;;;;;;13.88;10.25;;;16.90;99.90;;;;;;6242806;22;20035;-81
2021/08/21 03:22:40;;;;;;;10.98;9.82;;;16.90;99.90;;;;;;6243515;22;20016;-82
2021/08/21 03:25:08;;;;;;;13.57;10.02;;;16.90;99.90;;;;;;6241987;22;20020;-81
2021/08/21 03:27:36;;;;;;;13.95;10.52;;;16.90;99.90;;;;;;6243444;22;20024;-83
2021/08/21 03:30:05;;;;;;;13.00;10.27;;;16.90;99.90;;;;;;6243675;22;20024;-82
2021/08/21 03:32:34;;;;;;;11.88;10.05;;;16.90;99.90;;;;;;6242161;22;20425;-80
2021/08/21 03:35:03;;;;;;;15.25;9.93;;;17.00;99.90;;;;;;6243177;22;20051;-82
2021/08/21 03:37:33;;;;;;;13.73;8.80;;;16.90;99.90;;;;;;6242147;22;20077;-83
2021/08/21 03:40:00;;;;;;;12.20;9.63;;;17.00;99.90;;;;;;6242833;22;20337;-83
2021/08/21 03:42:29;;;;;;;12.25;9.43;;;16.90;99.90;;;;;;6242170;22;20453;-83
2021/08/21 03:44:56;;;;;;;11.80;9.90;;;17.00;99.90;;;;;;6247422;22;20075;-82
2021/08/21 03:47:23;;;;;;;12.85;9.95;;;17.00;99.90;;;;;;6247069;22;20027;-82
2021/08/21 03:49:50;;;;;;;13.93;10.35;;;17.00;99.90;;;;;;6248682;22;20016;-82
2021/08/21 03:52:17;;;;;;;12.93;10.48;;;17.00;99.90;;;;;;6247669;22;20450;-81
2021/08/21 03:54:47;;;;;;;12.50;10.48;;;17.00;99.90;;;;;;6248522;22;20086;-83
2021/08/21 03:57:17;;;;;;;14.13;10.50;;;17.00;99.90;;;;;;6247542;22;20034;-82
2021/08/21 04:00:10;;;;;;;;;;;;;;;;;;;;;
2021/08/21 04:03:08;;;;;;;;;;;;;;;;;;;;;
2021/08/21 04:06:30;;;;;;;13.02;10.65;;;17.00;99.90;;;;;;6109971;23;20025;-84
2021/08/21 04:08:57;;;;;;;16.95;11.13;;;17.00;99.90;;;;;;6022654;23;20023;-80
2021/08/21 04:11:40;;;;;;;12.38;10.10;;;17.00;99.90;;;;;;6032092;23;20019;-83
2021/08/21 04:14:21;;;;;;;11.27;10.07;;;16.90;99.90;;;;;;6049036;23;20026;-82
2021/08/21 04:16:48;;;;;;;13.45;9.60;;;17.00;99.90;;;;;;6180429;23;20019;-81
2021/08/21 04:19:15;;;;;;;12.52;9.82;;;16.90;99.90;;;;;;6219760;22;20036;-82
2021/08/21 04:21:42;;;;;;;14.25;10.40;;;17.00;99.90;;;;;;6230372;23;20020;-83
2021/08/21 04:24:09;;;;;;;13.63;10.30;;;16.90;99.90;;;;;;6228448;22;20016;-80
2021/08/21 04:26:41;;;;;;;12.73;9.30;;;17.00;99.90;;;;;;6213123;23;20452;-81
2021/08/21 04:29:10;;;;;;;16.67;10.10;;;17.00;99.90;;;;;;6225654;22;20020;-83
2021/08/21 04:35:37;;;;;;;10.77;8.73;;;17.00;99.90;;;;;;5852875;24;20033;-81
2021/08/21 07:04:14;;;;;;;;;;;;;;;;;;;;;
2021/08/21 07:07:26;;;;;;;;;;;;;;;;;;;;;
2021/08/21 07:10:26;;;;;;;7.97;5.18;;;17.50;99.90;;;;;;5873798;23;20029;-82
2021/08/21 07:13:24;;;;;;;7.90;4.40;;;17.50;99.90;;;;;;5899123;24;20323;-82
2021/08/21 07:16:00;;;;;;;7.78;4.65;;;17.50;99.90;;;;;;5866814;23;20047;-83
2021/08/21 07:19:46;;;;;;;;;;;;;;;;;;;;;
2021/08/21 07:22:19;;;;;;;12.05;5.43;;;17.60;99.90;;;;;;5921327;23;20020;-80
2021/08/21 07:25:15;;;;;;;11.82;4.50;;;17.60;99.90;;;;;;5876185;24;20104;-80
2021/08/21 07:28:30;;;;;;;9.50;4.57;;;17.70;99.90;;;;;;5845824;24;20049;-78
2021/08/21 07:34:30;;;;;;;;;;;17.80;99.90;;;;;;5773027;24;20538;-83
2021/08/21 07:38:06;;;;;;;7.32;4.55;;;17.90;99.90;;;;;;5790260;24;19921;-80
2021/08/21 07:41:22;;;;;;;8.23;4.00;;;17.90;99.90;;;;;;5815665;24;20073;-82
2021/08/21 07:44:48;;;;;;;;;;;;;;;;;;;;;
2021/08/21 07:47:51;;;;;;;8.82;3.75;;;18.00;99.90;;;;;;5793465;24;20068;-83
2021/08/21 07:51:24;;;;;;;;;;;;;;;;;;;;;
2021/08/21 07:54:19;;;;;;;;;;;;;;;;;;;;;
2021/08/21 07:57:00;;;;;;;;;;;;;;;;;;;;;
2021/08/21 07:59:50;;;;;;;;;;;;;;;;;;;;;
2021/08/21 08:05:34;;;;;;;5.55;3.22;;;18.20;99.90;;;;;;5998964;23;20027;-82
2021/08/21 08:08:16;;;;;;;6.57;3.83;;;18.20;99.90;;;;;;6043959;23;20045;-82
2021/08/21 08:11:26;;;;;;;5.93;3.38;;;18.20;99.90;;;;;;6000816;23;20030;-82
2021/08/21 08:14:00;;;;;;;4.68;3.05;;;18.30;99.90;;;;;;6031436;23;20022;-80
2021/08/21 08:17:03;;;;;;;;;;;;;;;;;;;;;
2021/08/21 08:19:37;;;;;;;4.88;2.70;;;18.30;99.90;;;;;;5997903;23;20050;-82
2021/08/21 08:22:19;;;;;;;;;;;;;;;;;;;;;
2021/08/21 08:25:02;;;;;;;6.78;3.13;;;18.40;99.90;;;;;;6023614;23;20059;-82
2021/08/21 08:27:54;;;;;;;5.68;3.33;;;18.40;99.90;;;;;;6086708;23;20030;-82
2021/08/21 08:30:42;;;;;;;6.47;3.70;;;18.40;99.90;;;;;;6143424;22;20042;-81
2021/08/21 08:33:34;;;;;;;4.63;3.20;;;18.50;99.90;;;;;;6246871;22;20485;-82
2021/08/21 08:36:04;;;;;;;4.50;2.78;;;18.40;99.90;;;;;;6193855;22;21160;-82
2021/08/21 08:38:36;;;;;;;3.63;2.80;;;18.50;99.90;;;;;;6246500;22;20023;-80
2021/08/21 08:42:07;;;;;;;;;;;;;;;;;;;;;
2021/08/21 08:45:14;;;;;;;5.93;3.08;;;18.60;99.90;;;;;;6159387;23;20024;-83
2021/08/21 08:51:36;;;;;;;2.55;2.35;;;18.60;99.90;;;;;;6144494;23;20029;-83
2021/08/21 08:55:52;;;;;;;;;;;;;;;;;;;;;
2021/08/21 08:57:53;;;;;;;3.42;2.70;;;18.70;99.90;;;;;;5871744;23;20020;-81
2021/08/21 09:01:23;;;;;;;;;;;;;;;;;;;;;
2021/08/21 09:04:15;;;;;;;2.97;2.67;;;18.80;99.90;;;;;;5871810;24;20430;-82
2021/08/21 09:07:22;;;;;;;;;;;;;;;;;;;;;
2021/08/21 09:10:53;;;;;;;;;;;;;;;;;;;;;
2021/08/21 09:13:58;;;;;;;;;;;18.80;99.90;;;;;;5957561;23;20019;-80
2021/08/21 09:16:38;;;;;;;;;;;;;;;;;;;;;
2021/08/21 09:19:45;;;;;;;2.15;1.95;;;18.80;99.90;;;;;;5893173;24;20021;-81
2021/08/21 09:22:41;;;;;;;;;;;;;;;;;;;;;
2021/08/21 09:25:44;;;;;;;;;;;;;;;;;;;;;
2021/08/21 09:29:28;;;;;;;;;;;;;;;;;;;;;
2021/08/21 09:35:54;;;;;;;;;;;;;;;;;;;;;
2021/08/21 09:43:03;;;;;;;;;;;;;;;;;;;;;
2021/08/21 09:46:33;;;;;;;;;;;;;;;;;;;;;
2021/08/21 09:53:33;;;;;;;14.30;3.42;;;19.50;99.90;;;;;;5877071;24;20028;-81
2021/08/21 09:57:01;;;;;;;11.10;3.20;;;19.50;99.90;;;;;;5810885;24;20025;-83
2021/08/21 10:00:30;;;;;;;16.70;3.55;;;19.60;99.90;;;;;;5877701;24;20101;-82
2021/08/21 10:03:27;;;;;;;9.85;3.22;;;19.70;99.90;;;;;;5795121;24;20349;-82
2021/08/21 10:06:03;;;;;;;11.77;2.80;;;19.80;99.90;;;;;;5814771;24;20452;-82
2021/08/21 10:09:18;;;;;;;10.70;2.70;;;19.90;99.90;;;;;;5855563;24;20358;-82
2021/08/21 10:12:07;;;;;;;10.15;2.88;;;20.00;99.90;;;;;;5958822;23;20106;-82
2021/08/21 10:15:07;;;;;;;;;;;;;;;;;;;;;
2021/08/21 10:17:46;;;;;;;12.25;2.88;;;20.20;99.90;;;;;;6076595;23;20025;-82
2021/08/21 10:20:24;;;;;;;11.20;2.83;;;20.20;99.90;;;;;;6134551;23;20065;-83
2021/08/21 10:23:26;;;;;;;10.60;2.97;;;20.20;99.90;;;;;;6106041;23;20455;-83
2021/08/21 10:29:25;;;;;;;11.88;2.50;;;20.30;99.90;;;;;;5964557;24;20029;-82
2021/08/21 10:32:24;;;;;;;12.98;3.22;;;20.30;99.90;;;;;;5965670;24;20098;-83
2021/08/21 10:35:27;;;;;;;;;;;;;;;;;;;;;
2021/08/21 10:38:03;;;;;;;11.60;2.80;;;20.30;99.90;;;;;;5863508;24;20076;-83
2021/08/21 10:41:56;;;;;;;;;;;;;;;;;;;;;
2021/08/21 10:45:11;;;;;;;8.60;2.20;;;20.50;99.90;;;;;;5740878;24;20517;-83
2021/08/21 10:48:04;;;;;;;;;;;;;;;;;;;;;
2021/08/21 10:51:03;;;;;;;;;;;;;;;;;;;;;
2021/08/21 10:53:58;;;;;;;3.92;1.33;;;20.70;99.90;;;;;;5706370;24;20027;-83
2021/08/21 10:56:54;;;;;;;;;;;;;;;;;;;;;
2021/08/21 11:03:25;;;;;;;;;;;;;;;;;;;;;
2021/08/21 11:06:41;;;;;;;;;;;;;;;;;;;;;
2021/08/21 11:09:58;;;;;;;;;;;;;;;;;;;;;
2021/08/21 11:26:35;;;;;;;6.15;1.70;;;21.30;99.90;;;;;;5007281;28;20465;-83
2021/08/21 11:29:19;;;;;;;;;;;;;;;;;;;;;
2021/08/21 11:32:18;;;;;;;4.90;2.20;;;21.70;99.90;;;;;;5007194;28;20045;-81
2021/08/21 11:34:46;;;;;;;3.90;1.50;;;21.80;99.90;;;;;;5009528;28;20049;-82
2021/08/21 11:37:17;;;;;;;4.35;1.50;;;21.80;99.90;;;;;;4998389;28;20045;-83
2021/08/21 11:39:54;;;;;;;4.85;1.92;;;21.90;99.90;;;;;;4993843;28;20050;-83
2021/08/21 11:42:25;;;;;;;6.75;1.90;;;22.00;99.90;;;;;;5019302;28;20393;-83
2021/08/21 11:45:18;;;;;;;;;;;;;;;;;;;;;
2021/08/21 13:32:00;;;;;;;;;;;;;;;;;;;;;
2021/08/21 13:59:41;;;;;;;11.80;4.13;;;22.90;99.90;;;;;;6126298;22;1333206;-83
2021/08/21 14:02:40;;;;;;;13.52;4.40;;;22.90;99.90;;;;;;6123885;23;20029;-81
2021/08/21 14:05:48;;;;;;;;;;;;;;;;;;;;;
2021/08/21 14:08:23;;;;;;;55.25;8.60;;;22.90;99.90;;;;;;6070534;23;20034;-82
2021/08/21 14:11:17;;;;;;;15.95;4.75;;;22.90;99.90;;;;;;6065433;23;20050;-83
2021/08/21 14:14:24;;;;;;;;;;;;;;;;;;;;;
2021/08/21 14:17:25;;;;;;;11.98;4.90;;;22.90;99.90;;;;;;6021399;23;20034;-84
2021/08/21 14:20:38;;;;;;;;;;;;;;;;;;;;;
2021/08/21 14:24:00;;;;;;;10.63;4.38;;;22.80;99.90;;;;;;6068909;23;20122;-82
2021/08/21 14:27:00;;;;;;;11.98;5.05;;;22.70;99.90;;;;;;6079578;23;20026;-84
2021/08/21 14:30:09;;;;;;;12.13;4.93;;;22.70;99.90;;;;;;6117493;23;20340;-84
2021/08/21 14:32:52;;;;;;;13.38;5.00;;;22.50;99.90;;;;;;6031716;23;20041;-84
2021/08/21 14:35:59;;;;;;;13.02;4.88;;;22.50;99.90;;;;;;5955570;23;20058;-83
2021/08/21 14:38:38;;;;;;;11.23;4.63;;;22.50;99.90;;;;;;6028298;23;20059;-83
2021/08/21 14:41:09;;;;;;;11.15;5.25;;;22.50;99.90;;;;;;6016748;23;20068;-83
2021/08/21 14:44:12;;;;;;;9.90;4.53;;;22.50;99.90;;;;;;6049259;23;20102;-83
2021/08/21 14:47:17;;;;;;;;;;;;;;;;;;;;;
2021/08/21 14:50:27;;;;;;;17.42;5.45;;;22.60;99.90;;;;;;5958043;23;20469;-83
2021/08/21 14:53:06;;;;;;;14.40;5.10;;;22.80;99.90;;;;;;5996821;23;20023;-83
2021/08/21 14:56:04;;;;;;;12.75;5.35;;;22.70;99.90;;;;;;6008090;23;20027;-85
2021/08/21 14:59:05;;;;;;;9.63;4.57;;;22.70;99.90;;;;;;5976386;23;20513;-82
2021/08/21 15:01:46;;;;;;;;;;;;;;;;;;;;;
2021/08/21 15:04:17;;;;;;;20.40;5.30;;;22.40;99.90;;;;;;6047201;23;20077;-82
2021/08/21 15:07:31;;;;;;;12.30;4.55;;;22.30;99.90;;;;;;6012978;23;20023;-82
2021/08/21 15:10:19;;;;;;;13.45;5.13;;;22.10;99.90;;;;;;5970049;23;20076;-82
2021/08/21 15:21:30;;;;;;;;;;;;;;;;;;;;;
2021/08/21 15:24:34;;;;;;;;;;;;;;;;;;;;;
2021/08/21 15:27:36;;;;;;;13.18;4.80;;;21.00;99.90;;;;;;5811211;24;20037;-83
2021/08/21 15:30:29;;;;;;;12.18;4.93;;;21.10;99.90;;;;;;5753195;24;20111;-83
2021/08/21 15:33:16;;;;;;;;;;;;;;;;;;;;;
2021/08/21 15:36:42;;;;;;;;;;;;;;;;;;;;;
2021/08/21 15:39:33;;;;;;;;;;;;;;;;;;;;;
2021/08/21 15:42:23;;;;;;;15.07;5.10;;;22.00;99.90;;;;;;5669868;24;20027;-83
2021/08/21 15:45:42;;;;;;;;;;;;;;;;;;;;;
2021/08/21 15:48:46;;;;;;;12.88;4.95;;;22.20;99.90;;;;;;5702432;24;20060;-83
2021/08/21 15:52:16;;;;;;;11.88;4.47;;;22.30;99.90;;;;;;5656980;24;20132;-83
2021/08/21 15:55:13;;;;;;;;;;;;;;;;;;;;;
2021/08/21 15:58:11;;;;;;;;;;;;;;;;;;;;;
2021/08/21 16:01:45;;;;;;;;;;;;;;;;;;;;;
2021/08/21 16:04:47;;;;;;;14.27;4.68;;;22.00;99.90;;;;;;5851843;24;20025;-83
2021/08/21 16:07:59;;;;;;;;;;;;;;;;;;;;;
2021/08/21 16:11:16;;;;;;;14.55;4.97;;;21.80;99.90;;;;;;6036317;23;20026;-82
2021/08/21 16:14:20;;;;;;;15.18;4.45;;;21.70;99.90;;;;;;5953168;23;20553;-83
2021/08/21 16:17:38;;;;;;;12.25;4.60;;;21.70;99.90;;;;;;5909184;24;20107;-83
2021/08/21 16:20:39;;;;;;;;;;;;;;;;;;;;;
2021/08/21 16:23:56;;;;;;;13.32;4.68;;;21.80;99.90;;;;;;5936794;24;20035;-83
2021/08/21 16:26:49;;;;;;;10.85;4.70;;;21.70;99.90;;;;;;5832656;24;20029;-83
2021/08/21 16:29:42;;;;;;;;;;;;;;;;;;;;;
2021/08/21 16:32:37;;;;;;;13.40;4.75;;;21.50;99.90;;;;;;5938272;23;20323;-83
2021/08/21 16:35:38;;;;;;;;;;;;;;;;;;;;;
2021/08/21 16:38:52;;;;;;;;;;;;;;;;;;;;;
2021/08/21 16:45:23;;;;;;;10.80;4.18;;;21.20;99.90;;;;;;6027630;23;20324;-83
2021/08/21 16:48:15;;;;;;;;;;;;;;;;;;;;;
2021/08/21 16:50:59;;;;;;;;;;;;;;;;;;;;;
2021/08/21 16:54:02;;;;;;;;;;;;;;;;;;;;;
2021/08/21 16:56:49;;;;;;;16.90;5.10;;;21.20;99.90;;;;;;5961378;23;20098;-83
2021/08/21 16:59:27;;;;;;;12.70;5.20;;;21.20;99.90;;;;;;6013999;23;20034;-84
2021/08/21 17:02:12;;;;;;;;;;;;;;;;;;;;;
2021/08/21 17:05:09;;;;;;;11.73;4.80;;;21.20;99.90;;;;;;5934196;23;20430;-82
2021/08/21 17:07:59;;;;;;;17.15;5.63;;;21.10;99.90;;;;;;5983205;23;20390;-83
2021/08/21 17:10:38;;;;;;;14.05;4.70;;;21.00;99.90;;;;;;5952898;23;20024;-82
2021/08/21 17:13:46;;;;;;;12.32;4.70;;;21.00;99.90;;;;;;6044710;23;20049;-83
2021/08/21 17:16:24;;;;;;;12.48;5.47;;;20.90;99.90;;;;;;6054817;23;20019;-83
2021/08/21 17:19:16;;;;;;;11.77;4.60;;;20.80;99.90;;;;;;6038828;23;20029;-83
2021/08/21 17:21:59;;;;;;;15.23;4.13;;;20.80;99.90;;;;;;6040604;23;20341;-82
2021/08/21 17:24:59;;;;;;;;;;;;;;;;;;;;;
2021/08/21 17:27:51;;;;;;;14.93;4.80;;;20.70;99.90;;;;;;6026633;23;20077;-81
2021/08/21 17:30:47;;;;;;;10.60;3.75;;;20.70;99.90;;;;;;6019058;23;20033;-83
2021/08/21 17:33:40;;;;;;;10.57;4.10;;;20.70;99.90;;;;;;6054823;23;20022;-83
2021/08/21 17:36:20;;;;;;;14.55;4.05;;;20.60;99.90;;;;;;6051853;23;20022;-81
2021/08/21 17:39:16;;;;;;;11.32;4.57;;;20.50;99.90;;;;;;6025253;23;20407;-82
2021/08/21 17:41:45;;;;;;;14.93;4.82;;;20.40;99.90;;;;;;6039928;23;20087;-83
2021/08/21 17:44:14;;;;;;;13.57;4.72;;;20.50;99.90;;;;;;6164147;23;20025;-83
2021/08/21 17:47:17;;;;;;;;;;;;;;;;;;;;;
2021/08/21 17:50:09;;;;;;;13.18;4.70;;;20.60;99.90;;;;;;6068353;23;20423;-83
2021/08/21 17:53:15;;;;;;;14.32;4.40;;;20.50;99.90;;;;;;6071546;23;20030;-82
2021/08/21 17:55:46;;;;;;;10.70;4.28;;;20.50;99.90;;;;;;6123190;23;20013;-83
2021/08/21 17:58:42;;;;;;;16.55;5.03;;;20.40;99.90;;;;;;6154472;23;20026;-83
2021/08/21 18:01:25;;;;;;;16.45;4.43;;;20.40;99.90;;;;;;6172884;23;20078;-82
2021/08/21 18:04:06;;;;;;;13.43;4.47;;;20.40;99.90;;;;;;6170570;23;20017;-83
2021/08/21 18:06:37;;;;;;;15.93;4.70;;;20.30;99.90;;;;;;6141127;23;20021;-82
2021/08/21 18:09:04;;;;;;;13.85;4.30;;;20.30;99.90;;;;;;6172888;23;20024;-83
2021/08/21 18:11:53;;;;;;;14.23;4.10;;;20.20;99.90;;;;;;6160104;23;20024;-82
2021/08/21 18:14:25;;;;;;;13.52;4.30;;;20.20;99.90;;;;;;6168720;23;20036;-83
2021/08/21 18:17:09;;;;;;;13.90;4.10;;;20.20;99.90;;;;;;6180482;23;20017;-82
2021/08/21 18:19:37;;;;;;;13.77;4.28;;;20.20;99.90;;;;;;6161714;23;20023;-82
2021/08/21 18:22:16;;;;;;;;;;;;;;;;;;;;;
2021/08/21 18:24:54;;;;;;;11.20;4.13;;;20.20;99.90;;;;;;6187582;23;20036;-81
2021/08/21 18:27:21;;;;;;;12.57;3.63;;;20.20;99.90;;;;;;6182756;23;20017;-82
2021/08/21 18:29:48;;;;;;;14.48;4.47;;;20.10;99.90;;;;;;6157131;23;20044;-82
2021/08/21 18:32:20;;;;;;;11.23;3.50;;;20.10;99.90;;;;;;6148990;23;20021;-82
2021/08/21 18:34:48;;;;;;;11.70;4.05;;;20.10;99.90;;;;;;6172276;23;20474;-81
2021/08/21 18:37:39;;;;;;;10.93;4.20;;;20.00;99.90;;;;;;6147760;23;20048;-84
2021/08/21 18:40:18;;;;;;;11.00;3.60;;;19.90;99.90;;;;;;6139180;23;20088;-83
2021/08/21 18:42:50;;;;;;;8.13;3.83;;;19.90;99.90;;;;;;6112136;23;20341;-83
2021/08/21 18:45:17;;;;;;;10.27;3.90;;;19.60;99.90;;;;;;6113376;23;20045;-83
2021/08/21 18:47:45;;;;;;;15.98;3.95;;;19.50;99.90;;;;;;6133575;23;20064;-81
2021/08/21 18:50:15;;;;;;;9.68;3.83;;;19.40;99.90;;;;;;6116099;23;20021;-83
2021/08/21 18:52:49;;;;;;;11.40;3.90;;;19.20;99.90;;;;;;6115949;23;20024;-82
2021/08/21 18:55:19;;;;;;;13.45;3.90;;;19.10;99.90;;;;;;6124776;23;20021;-83
2021/08/21 18:57:47;;;;;;;10.73;4.05;;;19.00;99.90;;;;;;6138789;23;20085;-82
2021/08/21 19:00:23;;;;;;;12.13;3.92;;;18.90;99.90;;;;;;6156344;23;20048;-80
2021/08/21 19:02:50;;;;;;;14.10;4.13;;;18.80;99.90;;;;;;6162257;23;20013;-82
2021/08/21 19:05:18;;;;;;;11.80;3.90;;;18.70;99.90;;;;;;6182841;23;20025;-82
2021/08/21 19:07:49;;;;;;;13.73;3.90;;;18.60;99.90;;;;;;6183601;23;20021;-83
2021/08/21 19:10:17;;;;;;;16.08;4.55;;;18.50;99.90;;;;;;6182403;23;20017;-83
2021/08/21 19:12:44;;;;;;;11.65;3.72;;;18.50;99.90;;;;;;6153617;23;20051;-81
2021/08/21 19:15:14;;;;;;;12.15;3.83;;;18.40;99.90;;;;;;6178774;23;20036;-82
2021/08/21 19:17:41;;;;;;;11.95;3.58;;;18.30;99.90;;;;;;6183473;23;20036;-81
2021/08/21 19:20:09;;;;;;;18.42;4.32;;;18.30;99.90;;;;;;6168897;23;20041;-83
2021/08/21 19:22:37;;;;;;;12.95;3.85;;;18.20;99.90;;;;;;6146573;23;20025;-80
2021/08/21 19:25:09;;;;;;;12.27;4.35;;;18.20;99.90;;;;;;6182757;23;20017;-83
2021/08/21 19:27:38;;;;;;;11.85;3.90;;;18.10;99.90;;;;;;6183549;23;20032;-82
2021/08/21 19:30:09;;;;;;;12.93;3.45;;;18.00;99.90;;;;;;6182407;23;20430;-82
2021/08/21 19:32:36;;;;;;;12.32;4.13;;;18.00;99.90;;;;;;6183679;23;20071;-80
2021/08/21 19:35:05;;;;;;;13.48;4.15;;;17.90;99.90;;;;;;6183078;23;20373;-82
2021/08/21 19:37:32;;;;;;;14.05;3.90;;;17.80;99.90;;;;;;6114815;23;20052;-81
2021/08/21 19:40:05;;;;;;;12.05;4.10;;;17.70;99.90;;;;;;6166088;23;20027;-82
2021/08/21 19:42:33;;;;;;;11.73;3.50;;;17.70;99.90;;;;;;6181794;23;20092;-79
2021/08/21 19:45:09;;;;;;;10.60;3.15;;;17.70;99.90;;;;;;6183391;23;20028;-83
2021/08/21 19:47:37;;;;;;;14.75;3.33;;;17.60;99.90;;;;;;6181758;23;20461;-82
2021/08/21 19:50:06;;;;;;;12.52;3.05;;;17.60;99.90;;;;;;6182376;23;20021;-83
2021/08/21 19:52:33;;;;;;;15.60;3.33;;;17.60;99.90;;;;;;6183335;23;20017;-81
2021/08/21 19:55:04;;;;;;;14.20;4.10;;;17.50;99.90;;;;;;6159385;23;20040;-80
2021/08/21 19:57:34;;;;;;;15.13;3.50;;;17.50;99.90;;;;;;6180689;23;20025;-82
2021/08/21 20:00:02;;;;;;;12.77;4.00;;;17.40;99.90;;;;;;6182882;23;20025;-82
2021/08/21 20:02:34;;;;;;;9.23;3.65;;;17.40;99.90;;;;;;6168386;23;20024;-83
2021/08/21 20:05:01;;;;;;;16.33;3.22;;;17.40;99.90;;;;;;6162471;23;20113;-82
2021/08/21 20:07:29;;;;;;;13.27;3.38;;;17.30;99.90;;;;;;6169779;23;20009;-82
2021/08/21 20:10:02;;;;;;;15.55;3.70;;;17.30;99.90;;;;;;6183342;23;20021;-83
2021/08/21 20:12:32;;;;;;;14.43;4.05;;;17.30;99.90;;;;;;6181768;23;20021;-82
2021/08/21 20:15:01;;;;;;;9.93;3.72;;;17.30;99.90;;;;;;6182984;23;20118;-83
2021/08/21 20:17:28;;;;;;;12.00;3.40;;;17.20;99.90;;;;;;6168551;23;20024;-82
2021/08/21 20:19:55;;;;;;;13.50;3.40;;;17.10;99.90;;;;;;6182724;23;20027;-82
2021/08/21 20:22:22;;;;;;;11.90;3.55;;;17.10;99.90;;;;;;6181835;23;20024;-82
2021/08/21 20:24:54;;;;;;;15.20;3.83;;;17.10;99.90;;;;;;6182577;23;20044;-80
2021/08/21 20:27:23;;;;;;;13.82;3.88;;;17.10;99.90;;;;;;6157011;23;20029;-82
2021/08/21 20:29:54;;;;;;;13.65;3.63;;;17.10;99.90;;;;;;6175281;23;20381;-83
2021/08/21 20:32:25;;;;;;;12.45;3.45;;;17.00;99.90;;;;;;6181961;23;20438;-82
2021/08/21 20:34:52;;;;;;;15.60;4.10;;;17.00;99.90;;;;;;6183101;23;20112;-80
2021/08/21 20:37:19;;;;;;;11.75;4.10;;;16.90;99.90;;;;;;6145139;23;20017;-82
2021/08/21 20:39:48;;;;;;;9.43;3.47;;;16.90;99.90;;;;;;6182342;23;20018;-82
2021/08/21 20:42:18;;;;;;;15.05;3.70;;;16.90;99.90;;;;;;6181180;23;20031;-80
2021/08/21 20:44:45;;;;;;;19.00;4.43;;;16.90;99.90;;;;;;6183022;23;20104;-83
2021/08/21 20:47:14;;;;;;;12.18;3.45;;;16.80;99.90;;;;;;6168139;23;20020;-80
2021/08/21 20:49:46;;;;;;;13.77;4.00;;;16.80;99.90;;;;;;6183089;23;20427;-81
2021/08/21 20:52:13;;;;;;;16.40;4.05;;;16.70;99.90;;;;;;6146630;23;20033;-83
2021/08/21 20:54:43;;;;;;;12.60;4.72;;;16.70;99.90;;;;;;6182300;23;20017;-80